Time;durP1;ratioP1;P1;durP2;ratioP2;P2;SDS_P1;SDS_P2;PMS_P1;PMS_P2;Temp;Humidity;BMP_temperature;BMP_pressure;BME280_temperature;BME280_humidity;BME280_pressure;Samples;Min_cycle;Max_cycle;Signal;HPM_P1;HPM_P2
2022/09/03 00:00:01;;;;;;;9.32;3.42;;;;;;;21.38;56.42;98118.53;4424728;32;20138;-81
2022/09/03 00:03:06;;;;;;;8.65;3.50;;;;;;;20.83;58.12;98122.28;4424470;32;20090;-81
2022/09/03 00:05:46;;;;;;;9.65;3.33;;;;;;;20.87;58.82;98119.31;4424475;32;20820;-81
2022/09/03 00:08:25;;;;;;;11.35;4.07;;;;;;;21.24;58.55;98118.81;4423238;32;20090;-81
2022/09/03 00:10:58;;;;;;;6.20;2.95;;;;;;;21.92;56.43;98117.31;4424414;32;20161;-81
2022/09/03 00:13:29;;;;;;;9.40;3.30;;;;;;;21.93;56.04;98121.59;4424672;32;20093;-81
2022/09/03 00:15:58;;;;;;;9.77;3.80;;;;;;;22.34;54.12;98125.03;4435788;32;20094;-81
2022/09/03 00:18:30;;;;;;;10.82;3.12;;;;;;;21.83;55.01;98120.75;4424631;32;20097;-81
2022/09/03 00:21:07;;;;;;;6.82;2.95;;;;;;;21.32;55.68;98129.53;4423262;32;20111;-81
2022/09/03 00:23:37;;;;;;;7.82;3.03;;;;;;;21.84;54.02;98117.16;4422890;32;20512;-81
2022/09/03 00:26:11;;;;;;;8.23;3.05;;;;;;;21.33;55.64;98124.16;4410818;32;20096;-81
2022/09/03 00:28:42;;;;;;;8.23;3.25;;;;;;;21.05;57.17;98135.28;4424427;32;20082;-81
2022/09/03 00:31:38;;;;;;;7.55;3.03;;;;;;;21.28;56.58;98136.00;4435613;32;20162;-81
2022/09/03 00:34:14;;;;;;;7.68;3.05;;;;;;;21.26;56.52;98140.53;4423140;32;20101;-81
2022/09/03 00:36:43;;;;;;;8.23;3.00;;;;;;;21.15;57.36;98145.84;4423890;32;20455;-81
2022/09/03 00:39:13;;;;;;;6.97;2.90;;;;;;;21.06;57.72;98145.66;4424251;32;20156;-81
2022/09/03 00:42:38;;;;;;;7.28;2.92;;;;;;;21.17;57.58;98136.06;4424186;32;20157;-81
2022/09/03 00:45:32;;;;;;;7.35;3.00;;;;;;;21.01;58.00;98137.34;4406272;32;20168;-81
2022/09/03 00:48:21;;;;;;;7.30;2.90;;;;;;;20.93;58.39;98136.31;4394418;32;20119;-81
2022/09/03 00:51:01;;;;;;;8.27;2.85;;;;;;;21.00;58.26;98135.69;4418010;32;20090;-81
2022/09/03 00:53:53;;;;;;;9.82;3.00;;;;;;;20.84;58.75;98134.44;4424480;32;20155;-81
2022/09/03 00:56:43;;;;;;;6.68;2.80;;;;;;;21.14;57.74;98133.69;4426105;32;20803;-80
2022/09/03 00:59:24;;;;;;;7.75;2.80;;;;;;;21.00;58.37;98126.97;4425940;32;20153;-81
2022/09/03 01:02:16;;;;;;;9.45;3.05;;;;;;;20.90;58.93;98131.31;4425014;32;20103;-81
2022/09/03 01:04:58;;;;;;;6.72;2.75;;;;;;;21.17;57.90;98136.88;4425810;32;20093;-81
2022/09/03 01:07:39;;;;;;;6.97;2.90;;;;;;;20.70;59.29;98130.34;4425086;32;20105;-81
2022/09/03 01:10:18;;;;;;;7.12;2.92;;;;;;;20.50;60.60;98134.59;4426036;32;20449;-81
2022/09/03 01:13:19;;;;;;;7.10;3.08;;;;;;;20.45;61.26;98126.31;4425749;32;20090;-81
2022/09/03 01:15:49;;;;;;;7.40;3.35;;;;;;;20.86;59.87;98125.50;4416129;32;20124;-81
2022/09/03 01:18:29;;;;;;;7.30;3.03;;;;;;;20.31;61.64;98121.31;4425710;32;20139;-81
2022/09/03 01:21:05;;;;;;;7.22;2.92;;;;;;;20.70;60.36;98127.72;4426069;32;20094;-81
2022/09/03 01:23:55;;;;;;;8.05;2.87;;;;;;;21.17;58.46;98126.41;4426044;32;20099;-81
2022/09/03 01:26:50;;;;;;;5.95;2.60;;;;;;;21.54;56.72;98124.09;4424401;32;20120;-81
2022/09/03 01:29:34;;;;;;;7.97;2.90;;;;;;;22.06;54.21;98127.47;4426028;32;20149;-81
2022/09/03 01:32:12;;;;;;;;;;;;;;;21.73;55.12;98123.34;4426118;32;20101;-81
2022/09/03 01:35:03;;;;;;;6.57;2.90;;;;;;;21.30;56.16;98119.16;4437321;32;19973;-81
2022/09/03 01:37:34;;;;;;;5.97;2.60;;;;;;;21.64;54.88;98119.72;4425912;32;20137;-81
2022/09/03 01:40:17;;;;;;;5.82;2.60;;;;;;;21.26;55.24;98124.78;4425609;32;20452;-81
2022/09/03 01:43:05;;;;;;;7.10;2.97;;;;;;;21.34;55.42;98115.31;4424868;32;20154;-81
2022/09/03 01:45:58;;;;;;;7.97;3.17;;;;;;;20.73;56.98;98120.44;4425640;32;20130;-81
2022/09/03 01:48:49;;;;;;;7.35;3.37;;;;;;;20.70;57.18;98117.25;4425659;32;20149;-81
2022/09/03 01:51:22;;;;;;;9.40;3.05;;;;;;;21.03;56.54;98119.66;4424880;32;20165;-81
2022/09/03 01:54:29;;;;;;;7.25;2.70;;;;;;;21.77;53.94;98126.53;4424357;32;20107;-81
2022/09/03 01:57:28;;;;;;;6.65;2.80;;;;;;;20.57;57.04;98120.06;4415784;32;20125;-81
2022/09/03 02:00:12;;;;;;;7.47;3.15;;;;;;;21.13;55.81;98121.53;4425740;32;20116;-81
2022/09/03 02:02:42;;;;;;;7.30;2.40;;;;;;;20.73;56.85;98120.44;4425787;32;20164;-81
2022/09/03 02:05:13;;;;;;;6.50;2.72;;;;;;;20.59;56.96;98118.13;4425536;32;20110;-81
2022/09/03 02:07:45;;;;;;;6.60;2.58;;;;;;;20.58;57.09;98118.25;4425406;32;20164;-81
2022/09/03 02:10:20;;;;;;;5.75;2.60;;;;;;;21.53;53.88;98117.19;4425517;32;20427;-81
2022/09/03 02:12:51;;;;;;;6.47;2.58;;;;;;;21.22;54.73;98116.31;4424624;32;20157;-81
2022/09/03 02:15:21;;;;;;;5.43;2.28;;;;;;;21.54;53.23;98124.09;4425212;32;20144;-81
2022/09/03 02:17:49;;;;;;;6.40;2.53;;;;;;;21.54;52.87;98118.84;4425783;32;20464;-81
2022/09/03 02:20:19;;;;;;;8.90;2.70;;;;;;;20.85;55.12;98126.47;4425634;32;20137;-81
2022/09/03 02:22:47;;;;;;;7.12;2.87;;;;;;;20.89;55.06;98130.50;4425421;32;20102;-81
2022/09/03 02:25:15;;;;;;;6.75;2.58;;;;;;;21.04;53.87;98131.81;4424132;32;20106;-81
2022/09/03 02:27:43;;;;;;;7.65;2.65;;;;;;;21.09;53.28;98131.44;4425626;32;20103;-81
2022/09/03 02:30:11;;;;;;;6.35;2.80;;;;;;;21.11;53.33;98121.66;4424099;32;20157;-81
2022/09/03 02:32:38;;;;;;;7.65;2.58;;;;;;;20.89;53.47;98127.03;4425611;32;20094;-81
2022/09/03 02:35:05;;;;;;;5.93;2.65;;;;;;;20.21;55.41;98129.09;4424212;32;20168;-81
2022/09/03 02:37:32;;;;;;;6.68;3.00;;;;;;;20.90;53.80;98134.78;4423989;32;20073;-81
2022/09/03 02:39:59;;;;;;;5.65;2.45;;;;;;;21.07;53.02;98131.59;4425364;32;20090;-81
2022/09/03 02:42:26;;;;;;;6.25;2.42;;;;;;;20.67;54.14;98131.44;4425199;32;20467;-81
2022/09/03 02:45:01;;;;;;;7.40;3.00;;;;;;;20.59;54.50;98126.00;4425179;32;20504;-81
2022/09/03 02:47:31;;;;;;;6.18;2.65;;;;;;;20.20;55.68;98127.41;4424414;32;20103;-81
2022/09/03 02:49:58;;;;;;;6.20;2.40;;;;;;;20.21;55.87;98129.94;4425109;32;20094;-80
2022/09/03 02:52:25;;;;;;;5.82;2.40;;;;;;;20.50;55.19;98135.44;4425462;32;20159;-80
2022/09/03 02:54:51;;;;;;;6.12;2.30;;;;;;;20.90;54.14;98133.94;4425302;32;20201;-80
2022/09/03 02:57:18;;;;;;;4.35;2.22;;;;;;;21.14;52.91;98137.12;4425038;32;20395;-80
2022/09/03 02:59:53;;;;;;;4.78;2.30;;;;;;;20.77;53.74;98129.72;4425412;32;20094;-80
2022/09/03 03:02:20;;;;;;;8.15;2.60;;;;;;;20.53;54.65;98134.37;4425339;32;20100;-80
2022/09/03 03:04:48;;;;;;;6.35;2.70;;;;;;;20.44;54.86;98132.50;4424856;32;20513;-80
2022/09/03 03:07:15;;;;;;;8.85;2.85;;;;;;;19.47;57.71;98128.00;4425268;32;20389;-80
2022/09/03 03:09:42;;;;;;;8.07;2.65;;;;;;;19.89;56.88;98129.06;4425106;32;20127;-80
2022/09/03 03:12:09;;;;;;;5.07;2.50;;;;;;;19.79;57.28;98135.97;4425028;32;20094;-80
2022/09/03 03:14:36;;;;;;;5.65;2.40;;;;;;;20.27;55.55;98135.63;4424538;32;20421;-80
2022/09/03 03:17:03;;;;;;;5.65;2.50;;;;;;;20.26;54.63;98141.81;4425087;32;20081;-80
2022/09/03 03:19:30;;;;;;;7.18;2.37;;;;;;;20.13;55.29;98140.19;4424921;32;20094;-80
2022/09/03 03:21:57;;;;;;;6.97;2.95;;;;;;;20.46;54.09;98141.91;4425086;32;20086;-80
2022/09/03 03:24:24;;;;;;;5.68;2.53;;;;;;;20.75;52.95;98142.13;4424847;32;20113;-80
2022/09/03 03:26:56;;;;;;;7.05;2.50;;;;;;;20.50;53.62;98148.53;4425027;32;20454;-80
2022/09/03 03:29:24;;;;;;;6.12;2.45;;;;;;;19.44;56.74;98146.53;4425171;32;20488;-80
2022/09/03 03:31:51;;;;;;;6.32;2.70;;;;;;;19.37;57.36;98148.81;4424851;32;20090;-80
2022/09/03 03:34:18;;;;;;;6.75;2.97;;;;;;;19.86;56.33;98151.06;4424991;32;20512;-80
2022/09/03 03:36:45;;;;;;;7.03;2.72;;;;;;;20.41;54.17;98159.75;4424923;32;20441;-80
2022/09/03 03:39:13;;;;;;;6.68;2.62;;;;;;;19.54;56.45;98148.31;4424609;32;20098;-80
2022/09/03 03:41:40;;;;;;;5.82;2.50;;;;;;;20.09;55.04;98145.78;4424947;32;20157;-80
2022/09/03 03:44:07;;;;;;;5.85;2.47;;;;;;;19.75;55.72;98156.31;4424990;32;20142;-80
2022/09/03 03:46:37;;;;;;;5.25;2.60;;;;;;;20.20;54.80;98151.84;4424527;32;20164;-80
2022/09/03 03:49:05;;;;;;;9.68;2.80;;;;;;;19.55;56.36;98146.53;4425004;32;20223;-80
2022/09/03 03:51:33;;;;;;;4.93;2.42;;;;;;;19.60;56.38;98153.12;4424885;32;20106;-80
2022/09/03 03:54:00;;;;;;;7.47;3.05;;;;;;;19.46;56.94;98153.31;4424446;32;20101;-80
2022/09/03 03:56:31;;;;;;;4.60;2.30;;;;;;;19.70;56.40;98157.63;4424900;32;20108;-80
2022/09/03 03:58:58;;;;;;;6.20;2.72;;;;;;;19.65;56.51;98152.75;4424785;32;20149;-80
2022/09/03 04:01:26;;;;;;;6.80;3.15;;;;;;;19.98;55.69;98158.91;4423320;32;20181;-80
2022/09/03 04:03:54;;;;;;;5.78;2.55;;;;;;;19.86;55.19;98160.69;4424660;32;20094;-80
2022/09/03 04:06:22;;;;;;;5.85;2.55;;;;;;;19.84;54.96;98166.06;4424626;32;20135;-81
2022/09/03 04:08:49;;;;;;;6.07;2.40;;;;;;;19.33;56.33;98156.03;4423453;32;20451;-80
2022/09/03 04:11:18;;;;;;;5.43;2.33;;;;;;;19.26;55.96;98167.09;4420254;32;136253;-80
2022/09/03 04:13:46;;;;;;;5.68;2.30;;;;;;;19.46;55.59;98165.56;4424224;32;20104;-80
2022/09/03 04:16:17;;;;;;;5.87;2.65;;;;;;;19.06;56.52;98174.66;4424564;32;20136;-80
2022/09/03 04:18:45;;;;;;;5.80;2.70;;;;;;;18.88;57.47;98175.19;4424727;32;20097;-80
2022/09/03 04:21:20;;;;;;;7.47;2.65;;;;;;;19.17;56.44;98171.25;4424114;32;20132;-80
2022/09/03 04:23:48;;;;;;;6.47;2.60;;;;;;;19.19;56.76;98171.97;4424487;32;20149;-80
2022/09/03 04:26:18;;;;;;;8.60;3.00;;;;;;;19.04;57.36;98162.66;4424460;32;20107;-80
2022/09/03 04:28:45;;;;;;;6.70;2.87;;;;;;;18.76;58.89;98156.03;4425723;32;20509;-80
2022/09/03 04:31:14;;;;;;;8.00;3.30;;;;;;;18.55;59.72;98153.19;4426455;32;20094;-80
2022/09/03 04:33:42;;;;;;;6.22;2.42;;;;;;;18.44;61.29;98153.97;4426304;32;20204;-80
2022/09/03 04:36:10;;;;;;;9.18;2.95;;;;;;;19.68;56.92;98149.91;4425971;32;20153;-80
2022/09/03 04:38:40;;;;;;;7.07;2.67;;;;;;;20.03;54.30;98160.22;4426377;32;20093;-80
2022/09/03 04:41:09;;;;;;;5.22;2.50;;;;;;;20.14;53.11;98157.56;4425194;32;20154;-80
2022/09/03 04:43:36;;;;;;;7.45;2.60;;;;;;;20.03;53.33;98167.25;4426026;32;20086;-80
2022/09/03 04:46:06;;;;;;;9.90;3.10;;;;;;;19.69;53.92;98167.28;4426195;32;20176;-80
2022/09/03 04:48:43;;;;;;;8.30;2.67;;;;;;;19.23;55.83;98183.00;4426051;32;20163;-80
2022/09/03 04:51:13;;;;;;;7.45;2.97;;;;;;;18.10;60.68;98180.88;4426258;32;20141;-80
2022/09/03 04:53:42;;;;;;;8.15;2.90;;;;;;;18.39;60.91;98183.97;4426344;32;20158;-80
2022/09/03 04:56:17;;;;;;;6.55;2.62;;;;;;;19.51;57.58;98190.44;4425776;32;20118;-80
2022/09/03 04:58:44;;;;;;;8.35;2.55;;;;;;;20.51;53.68;98184.28;4426087;32;20127;-79
2022/09/03 05:01:16;;;;;;;8.75;2.92;;;;;;;20.30;54.45;98185.97;4426224;32;20433;-79
2022/09/03 05:03:44;;;;;;;6.35;2.80;;;;;;;20.14;55.39;98180.31;4425646;32;20155;-79
2022/09/03 05:06:11;;;;;;;11.93;3.08;;;;;;;19.37;58.03;98181.03;4426144;32;20142;-79
2022/09/03 05:08:39;;;;;;;7.50;2.85;;;;;;;19.47;58.61;98181.16;4426107;32;20124;-79
2022/09/03 05:11:07;;;;;;;7.90;2.90;;;;;;;19.50;58.71;98180.91;4425575;32;20093;-80
2022/09/03 05:13:35;;;;;;;4.97;2.30;;;;;;;20.16;57.39;98181.03;4425984;32;20173;-80
2022/09/03 05:16:07;;;;;;;4.97;2.33;;;;;;;21.21;53.78;98189.94;4424806;32;20090;-79
2022/09/03 05:18:35;;;;;;;5.87;2.33;;;;;;;21.61;54.49;98177.75;4425863;32;20093;-80
2022/09/03 05:21:07;;;;;;;5.72;2.30;;;;;;;22.55;51.17;98186.19;4424800;32;20097;-80
2022/09/03 05:23:39;;;;;;;6.15;2.50;;;;;;;23.82;47.92;98182.41;4425728;32;20094;-80
2022/09/03 05:26:08;;;;;;;4.60;2.28;;;;;;;24.62;45.10;98186.13;4424790;32;20145;-80
2022/09/03 05:28:39;;;;;;;5.43;2.42;;;;;;;25.35;42.88;98184.94;4426087;32;20109;-80
2022/09/03 05:31:11;;;;;;;6.00;2.33;;;;;;;26.28;41.01;98182.44;4424424;32;20169;-80
2022/09/03 05:33:41;;;;;;;6.25;2.10;;;;;;;27.15;39.71;98183.72;4424705;32;20173;-80
2022/09/03 05:36:10;;;;;;;5.32;2.35;;;;;;;27.34;38.70;98186.03;4425841;32;20138;-80
2022/09/03 05:38:38;;;;;;;7.75;2.40;;;;;;;27.99;37.84;98185.03;4425160;32;20098;-80
2022/09/03 05:41:08;;;;;;;4.53;2.15;;;;;;;28.73;36.53;98193.44;4425916;32;20162;-80
2022/09/03 05:43:35;;;;;;;6.65;2.17;;;;;;;28.95;35.68;98184.66;4424737;32;20089;-80
2022/09/03 05:46:05;;;;;;;5.07;2.30;;;;;;;29.37;35.25;98189.41;4425339;32;20081;-80
2022/09/03 05:48:34;;;;;;;5.80;2.20;;;;;;;30.29;33.96;98189.06;4425888;32;20450;-80
2022/09/03 05:51:03;;;;;;;6.62;2.20;;;;;;;29.19;35.75;98183.59;4424747;32;20130;-80
2022/09/03 05:53:32;;;;;;;5.12;2.10;;;;;;;30.00;34.81;98187.25;4424404;32;20157;-80
2022/09/03 05:56:01;;;;;;;6.32;2.45;;;;;;;31.15;33.05;98189.91;4425610;32;20107;-80
2022/09/03 05:58:32;;;;;;;6.62;2.45;;;;;;;31.95;32.12;98186.00;4425774;32;20085;-80
2022/09/03 06:01:01;;;;;;;4.62;2.10;;;;;;;31.69;32.74;98197.31;4425511;32;20141;-80
2022/09/03 06:03:28;;;;;;;5.40;2.50;;;;;;;31.33;33.33;98194.81;4424377;32;20164;-80
2022/09/03 06:05:56;;;;;;;5.70;2.20;;;;;;;31.20;32.98;98189.38;4425228;32;20424;-80
2022/09/03 06:08:23;;;;;;;6.22;2.67;;;;;;;31.29;32.79;98193.56;4425734;32;20101;-81
2022/09/03 06:10:50;;;;;;;6.60;2.78;;;;;;;31.58;32.89;98190.69;4424299;32;20170;-81
2022/09/03 06:13:17;;;;;;;5.95;2.30;;;;;;;31.96;32.58;98190.31;4425455;32;20100;-81
2022/09/03 06:15:44;;;;;;;5.87;2.40;;;;;;;30.73;34.20;98196.09;4425404;32;20151;-81
2022/09/03 06:18:11;;;;;;;5.65;2.72;;;;;;;31.60;32.74;98191.31;4425600;32;20395;-81
2022/09/03 06:20:38;;;;;;;6.25;2.85;;;;;;;31.56;32.90;98189.22;4424410;32;20118;-81
2022/09/03 06:23:05;;;;;;;6.53;2.37;;;;;;;30.59;34.60;98175.66;4425441;32;20128;-81
2022/09/03 06:25:32;;;;;;;7.78;2.50;;;;;;;30.93;34.89;98182.97;4425409;32;20107;-81
2022/09/03 06:27:59;;;;;;;6.97;2.45;;;;;;;30.86;34.32;98182.09;4425268;32;20116;-81
2022/09/03 06:30:26;;;;;;;6.95;2.70;;;;;;;30.92;35.34;98178.66;4425576;32;20141;-81
2022/09/03 06:32:53;;;;;;;6.50;2.55;;;;;;;31.18;35.41;98186.87;4425531;32;20093;-80
2022/09/03 06:35:20;;;;;;;6.45;2.40;;;;;;;30.92;35.23;98182.16;4424926;32;20105;-81
2022/09/03 06:37:46;;;;;;;7.85;2.50;;;;;;;31.23;34.79;98186.31;4425579;32;20144;-81
2022/09/03 06:40:19;;;;;;;5.40;2.40;;;;;;;31.30;34.39;98188.03;4425550;32;20142;-81
2022/09/03 06:42:55;;;;;;;6.57;2.17;;;;;;;30.48;35.27;98176.97;4425132;32;20496;-81
2022/09/03 06:45:22;;;;;;;6.53;2.40;;;;;;;31.12;35.04;98173.50;4425258;32;20401;-81
2022/09/03 06:47:49;;;;;;;7.45;2.90;;;;;;;30.79;34.69;98180.19;4425168;32;20651;-81
2022/09/03 06:50:17;;;;;;;5.97;2.25;;;;;;;29.49;36.84;98176.53;4424506;32;20089;-81
2022/09/03 06:52:43;;;;;;;6.10;2.45;;;;;;;29.65;37.72;98175.53;4425433;32;20081;-81
2022/09/03 06:55:10;;;;;;;5.62;2.10;;;;;;;29.62;36.54;98168.75;4424896;32;20070;-81
2022/09/03 06:57:37;;;;;;;5.90;2.08;;;;;;;30.59;35.58;98167.66;4425438;32;20082;-81
2022/09/03 07:00:05;;;;;;;6.12;2.03;;;;;;;30.46;35.00;98173.69;4425330;32;20102;-80
2022/09/03 07:02:32;;;;;;;6.22;2.30;;;;;;;28.97;37.66;98168.53;4436453;32;20148;-81
2022/09/03 07:05:00;;;;;;;4.05;2.15;;;;;;;29.70;35.61;98164.34;4425076;32;20429;-80
2022/09/03 07:07:26;;;;;;;5.68;2.35;;;;;;;30.79;34.69;98176.72;4425272;32;20121;-80
2022/09/03 07:09:53;;;;;;;5.35;2.28;;;;;;;29.82;35.40;98178.84;4424766;32;20108;-80
2022/09/03 07:12:20;;;;;;;5.78;2.33;;;;;;;29.99;35.20;98184.75;4425395;32;20145;-80
2022/09/03 07:14:47;;;;;;;6.80;2.30;;;;;;;29.79;34.73;98176.56;4425165;32;20078;-80
2022/09/03 07:17:16;;;;;;;5.80;2.42;;;;;;;29.90;35.40;98176.91;4423688;32;20408;-80
2022/09/03 07:19:43;;;;;;;6.93;2.35;;;;;;;30.41;34.19;98168.09;4425401;32;20085;-80
2022/09/03 07:22:10;;;;;;;5.60;2.45;;;;;;;30.07;35.41;98177.53;4425104;32;20089;-80
2022/09/03 07:24:38;;;;;;;5.57;2.35;;;;;;;30.92;33.30;98178.66;4424733;32;20145;-80
2022/09/03 07:27:05;;;;;;;3.80;1.98;;;;;;;30.38;34.35;98179.13;4425038;32;20151;-80
2022/09/03 07:29:35;;;;;;;4.95;1.90;;;;;;;30.50;34.14;98178.44;4425229;32;20159;-80
2022/09/03 07:32:02;;;;;;;6.82;2.35;;;;;;;30.47;34.16;98178.00;4424832;32;20130;-80
2022/09/03 07:34:29;;;;;;;7.53;2.40;;;;;;;29.34;37.46;98183.62;4424972;32;20077;-80
2022/09/03 07:36:56;;;;;;;6.00;2.28;;;;;;;29.15;36.61;98186.81;4424788;32;20478;-80
2022/09/03 07:39:23;;;;;;;6.70;2.20;;;;;;;29.31;35.11;98176.03;4425026;32;20107;-80
2022/09/03 07:41:50;;;;;;;5.15;2.00;;;;;;;29.66;34.29;98188.63;4424979;32;20099;-80
2022/09/03 07:44:21;;;;;;;5.00;2.10;;;;;;;29.07;35.08;98180.56;4424593;32;20111;-80
2022/09/03 07:46:49;;;;;;;7.62;2.22;;;;;;;29.47;34.63;98185.69;4423804;32;20120;-80
2022/09/03 07:49:18;;;;;;;5.65;2.17;;;;;;;29.28;34.46;98181.72;4424957;32;20157;-80
2022/09/03 07:51:49;;;;;;;5.03;1.90;;;;;;;29.83;33.50;98183.97;4424559;32;20380;-80
2022/09/03 07:54:16;;;;;;;8.30;2.28;;;;;;;29.64;33.77;98193.31;4436452;32;20077;-80
2022/09/03 07:56:43;;;;;;;4.75;2.12;;;;;;;29.46;34.24;98187.50;4424884;32;20142;-80
2022/09/03 07:59:10;;;;;;;4.75;2.17;;;;;;;29.78;33.08;98190.84;4424505;32;20434;-80
2022/09/03 08:01:38;;;;;;;5.40;2.30;;;;;;;29.89;32.96;98185.06;4424561;32;20081;-80
2022/09/03 08:04:07;;;;;;;5.55;2.10;;;;;;;29.49;33.26;98186.34;4424654;32;20574;-80
2022/09/03 08:06:36;;;;;;;5.18;2.00;;;;;;;29.79;33.25;98181.88;4424340;32;20154;-80
2022/09/03 08:09:06;;;;;;;5.00;2.47;;;;;;;30.20;33.73;98191.03;4424766;32;20157;-80
2022/09/03 08:11:36;;;;;;;7.22;3.45;;;;;;;30.28;32.89;98190.06;4424432;32;20116;-80
2022/09/03 08:14:09;;;;;;;3.58;2.00;;;;;;;30.16;32.85;98199.53;4424389;32;20147;-80
2022/09/03 08:16:41;;;;;;;7.55;2.20;;;;;;;30.33;33.21;98192.19;4424480;32;20166;-80
2022/09/03 08:19:09;;;;;;;4.37;1.98;;;;;;;29.89;33.42;98190.38;4424290;32;20097;-80
2022/09/03 08:21:36;;;;;;;4.18;1.75;;;;;;;30.14;32.35;98188.28;4424577;32;20151;-80
2022/09/03 08:24:03;;;;;;;6.62;1.90;;;;;;;29.62;32.73;98194.50;4424381;32;20104;-80
2022/09/03 08:26:36;;;;;;;4.47;2.05;;;;;;;29.86;32.78;98198.72;4423996;32;20158;-80
2022/09/03 08:29:04;;;;;;;4.95;1.77;;;;;;;29.92;32.60;98187.34;4424395;32;20149;-80
2022/09/03 08:31:31;;;;;;;5.18;2.10;;;;;;;29.43;33.38;98197.66;4424474;32;20171;-80
2022/09/03 08:34:05;;;;;;;4.28;1.90;;;;;;;29.50;33.14;98194.13;4423933;32;20085;-80
2022/09/03 08:36:35;;;;;;;3.80;1.80;;;;;;;29.74;33.50;98194.87;4424319;32;20120;-80
2022/09/03 08:39:06;;;;;;;4.25;1.90;;;;;;;30.57;31.95;98193.66;4424257;32;20089;-80
2022/09/03 08:41:43;;;;;;;5.03;1.95;;;;;;;30.61;31.39;98186.94;4423974;32;20132;-80
2022/09/03 08:44:23;;;;;;;4.25;2.03;;;;;;;30.56;31.75;98192.03;4424146;32;20149;-80
2022/09/03 08:46:50;;;;;;;5.62;1.98;;;;;;;31.00;31.61;98195.34;4424028;32;20168;-80
2022/09/03 08:49:31;;;;;;;6.90;1.95;;;;;;;30.55;31.75;98187.72;4423897;32;20437;-80
2022/09/03 08:52:02;;;;;;;4.97;1.80;;;;;;;30.95;30.55;98188.97;4424200;32;20112;-80
2022/09/03 08:54:30;;;;;;;5.45;1.80;;;;;;;30.48;32.36;98185.78;4422629;32;20214;-80
2022/09/03 08:57:00;;;;;;;4.70;1.70;;;;;;;30.74;31.05;98182.62;4424025;32;20117;-80
2022/09/03 08:59:29;;;;;;;6.20;1.70;;;;;;;31.63;30.56;98190.09;4422913;32;20125;-80
2022/09/03 09:02:10;;;;;;;4.95;1.92;;;;;;;32.38;29.18;98183.09;4435000;32;20164;-81
2022/09/03 09:05:02;;;;;;;3.25;1.83;;;;;;;32.33;28.62;98182.91;4423816;32;20082;-80
2022/09/03 09:07:52;;;;;;;3.85;1.67;;;;;;;31.72;28.56;98172.09;4422836;32;20105;-80
2022/09/03 09:10:46;;;;;;;2.33;1.60;;;;;;;31.10;29.54;98179.03;4423408;32;20624;-80
2022/09/03 09:13:23;;;;;;;3.50;1.70;;;;;;;31.31;27.59;98171.03;4420944;32;20161;-80
2022/09/03 09:16:17;;;;;;;5.93;1.70;;;;;;;31.30;28.01;98165.88;4424480;32;20149;-81
2022/09/03 09:19:10;;;;;;;4.87;1.85;;;;;;;30.94;27.87;98168.62;4426260;32;20574;-80
2022/09/03 09:21:44;;;;;;;5.78;1.90;;;;;;;30.89;27.98;98166.56;4426133;32;20161;-80
2022/09/03 09:24:41;;;;;;;4.37;1.70;;;;;;;30.51;29.77;98158.78;4425585;32;20097;-80
2022/09/03 09:27:08;;;;;;;4.18;1.77;;;;;;;30.87;28.15;98152.62;4425521;32;20514;-80
2022/09/03 09:29:43;;;;;;;4.07;1.73;;;;;;;30.85;28.06;98161.81;4425758;32;20161;-80
2022/09/03 09:32:11;;;;;;;4.72;1.62;;;;;;;31.27;27.86;98159.09;4424826;32;20113;-80
2022/09/03 09:34:40;;;;;;;3.20;1.65;;;;;;;31.05;28.90;98168.09;4425860;32;20145;-80
2022/09/03 09:37:14;;;;;;;3.75;1.60;;;;;;;30.81;28.35;98175.50;4425525;32;20424;-80
2022/09/03 09:39:57;;;;;;;4.30;1.60;;;;;;;30.71;28.56;98176.81;4425885;32;20503;-80
2022/09/03 09:42:24;;;;;;;4.65;1.70;;;;;;;30.87;28.45;98176.59;4425937;32;20147;-80
2022/09/03 09:44:51;;;;;;;2.90;1.60;;;;;;;31.17;28.28;98176.44;4425362;32;20169;-80
2022/09/03 09:47:25;;;;;;;4.97;1.80;;;;;;;31.10;28.33;98184.34;4424634;32;20109;-80
2022/09/03 09:49:59;;;;;;;3.10;1.80;;;;;;;30.88;28.89;98182.72;4425940;32;20142;-80
2022/09/03 09:52:28;;;;;;;3.58;1.83;;;;;;;31.26;28.01;98175.28;4437120;32;20172;-80
2022/09/03 09:55:07;;;;;;;3.75;1.73;;;;;;;31.06;28.47;98180.44;4425711;32;20089;-80
2022/09/03 09:57:36;;;;;;;4.32;1.90;;;;;;;30.79;29.04;98176.72;4425551;32;20074;-81
2022/09/03 10:00:11;;;;;;;2.95;1.60;;;;;;;31.41;27.29;98183.19;4425802;32;20500;-80
2022/09/03 10:02:49;;;;;;;4.00;1.60;;;;;;;31.93;26.89;98175.53;4425751;32;20106;-80
2022/09/03 10:05:25;;;;;;;3.72;1.58;;;;;;;31.90;26.45;98178.59;4424057;32;20452;-80
2022/09/03 10:08:00;;;;;;;3.65;1.73;;;;;;;31.41;26.30;98177.84;4425760;32;20089;-80
2022/09/03 10:10:28;;;;;;;4.45;1.80;;;;;;;31.17;27.05;98173.75;4425522;32;20472;-80
2022/09/03 10:13:35;;;;;;;3.50;1.55;;;;;;;31.59;27.37;98175.53;4424107;32;20131;-80
2022/09/03 10:16:26;;;;;;;3.55;1.75;;;;;;;31.73;27.23;98176.41;4422021;32;20567;-80
2022/09/03 10:19:14;;;;;;;4.12;1.80;;;;;;;31.48;26.57;98171.56;4424259;32;20136;-81
2022/09/03 10:22:04;;;;;;;5.90;1.80;;;;;;;29.72;30.31;98165.00;4425713;32;20145;-81
2022/09/03 10:24:57;;;;;;;2.95;1.80;;;;;;;30.28;29.65;98165.28;4424557;32;20128;-80
2022/09/03 10:27:24;;;;;;;5.03;1.67;;;;;;;31.32;27.47;98171.84;4424044;32;20089;-80
2022/09/03 10:29:52;;;;;;;5.85;1.60;;;;;;;31.04;27.99;98163.81;4425574;32;20145;-80
2022/09/03 10:32:26;;;;;;;3.97;1.70;;;;;;;30.81;27.80;98164.84;4425252;32;20108;-80
2022/09/03 10:35:29;;;;;;;5.62;1.80;;;;;;;31.46;26.84;98172.75;4435817;32;20189;-80
2022/09/03 10:38:17;;;;;;;2.85;1.67;;;;;;;31.98;26.22;98166.91;4425641;32;20132;-80
2022/09/03 10:41:01;;;;;;;4.65;1.60;;;;;;;32.25;25.52;98170.50;4425298;32;20105;-80
2022/09/03 10:43:35;;;;;;;4.93;1.85;;;;;;;31.21;26.92;98172.37;4425392;32;20105;-80
2022/09/03 10:46:06;;;;;;;3.40;1.60;;;;;;;31.56;25.89;98178.56;4424293;32;20134;-80
2022/09/03 10:49:00;;;;;;;3.83;1.58;;;;;;;31.71;25.79;98163.28;4425220;32;20086;-81
2022/09/03 10:51:34;;;;;;;3.78;1.80;;;;;;;32.49;24.79;98167.31;4424287;32;20488;-81
2022/09/03 10:54:19;;;;;;;3.72;1.62;;;;;;;31.30;25.24;98171.22;4425104;32;20139;-80
2022/09/03 10:57:15;;;;;;;3.62;1.62;;;;;;;30.75;26.60;98173.63;4425314;32;20160;-80
2022/09/03 11:00:05;;;;;;;5.50;1.70;;;;;;;30.02;27.36;98155.97;4424365;32;20090;-80
2022/09/03 11:02:59;;;;;;;5.07;1.65;;;;;;;29.73;27.97;98166.63;4425098;32;20149;-80
2022/09/03 11:05:30;;;;;;;3.87;1.60;;;;;;;30.17;28.55;98170.09;4425148;32;20448;-80
2022/09/03 11:08:01;;;;;;;3.33;1.70;;;;;;;30.93;26.03;98162.47;4423929;32;20109;-80
2022/09/03 11:10:31;;;;;;;6.28;1.70;;;;;;;31.52;27.51;98167.47;4425105;32;20086;-80
2022/09/03 11:13:12;;;;;;;4.43;1.95;;;;;;;30.21;28.46;98159.91;4424166;32;20501;-80
2022/09/03 11:15:41;;;;;;;4.15;1.80;;;;;;;30.13;28.28;98168.00;4423588;32;20169;-80
2022/09/03 11:18:27;;;;;;;3.72;1.60;;;;;;;30.77;28.25;98160.09;4424257;32;20126;-80
2022/09/03 11:21:00;;;;;;;2.42;1.60;;;;;;;31.58;26.73;98163.19;4425369;32;20086;-80
2022/09/03 11:23:32;;;;;;;2.92;1.75;;;;;;;31.14;26.99;98163.47;4423719;32;20097;-80
2022/09/03 11:26:03;;;;;;;2.97;1.60;;;;;;;30.63;26.83;98163.63;4423942;32;20165;-81
2022/09/03 11:28:52;;;;;;;3.85;1.48;;;;;;;29.37;29.24;98151.38;4424978;32;20157;-81
2022/09/03 11:31:37;;;;;;;6.03;2.08;;;;;;;29.61;28.64;98163.63;4425182;32;20508;-80
2022/09/03 11:34:12;;;;;;;3.05;1.67;;;;;;;28.70;29.76;98154.75;4425092;32;20542;-80
2022/09/03 11:36:49;;;;;;;4.37;2.03;;;;;;;29.30;29.28;98161.09;4423144;32;20105;-81
2022/09/03 11:39:22;;;;;;;2.83;1.55;;;;;;;29.31;29.97;98165.38;4425131;32;20377;-80
2022/09/03 11:42:03;;;;;;;3.78;1.85;;;;;;;28.34;30.38;98161.66;4423977;32;20093;-81
2022/09/03 11:44:38;;;;;;;3.40;1.67;;;;;;;28.71;30.84;98169.72;4424662;32;20150;-80
2022/09/03 11:47:24;;;;;;;5.70;1.90;;;;;;;30.19;28.52;98172.56;4424879;32;20093;-80
2022/09/03 11:49:52;;;;;;;2.90;1.70;;;;;;;29.68;29.29;98156.56;4423353;32;20482;-81
2022/09/03 11:52:27;;;;;;;4.35;1.83;;;;;;;28.90;30.55;98163.09;4423851;32;20103;-80
2022/09/03 11:54:54;;;;;;;3.05;1.73;;;;;;;29.06;31.14;98170.94;4423630;32;20157;-80
2022/09/03 11:57:29;;;;;;;4.75;1.90;;;;;;;29.30;30.69;98163.75;4436018;32;20165;-80
2022/09/03 12:00:12;;;;;;;5.32;1.80;;;;;;;29.70;29.15;98167.84;4424797;32;20480;-80
2022/09/03 12:02:51;;;;;;;4.72;1.65;;;;;;;29.71;28.76;98174.81;4424849;32;20160;-80